Eugene, Oregon
Current Conditions -  °F | °C
As of 4:41 AM on Wednesday 26 Nov 2014 (Local Time) from KEUG Reporting Station
Haze Haze  
Wind Chill:   Ceiling: Unl
Heat Index:   Visibility: 3mi
Dew Point:   Wind: 6mph
Humidity: 90%   Direction: 200°SSW
Pressure: 30.26"   Gusts: NA
Location:  44.05°N, 123.08°W
Report Text: KEUG 261241Z AUTO 20005KT 3SM BR CLR 07/06 A3026 RMK AO2 T00720056
Loading
Personal Weather Stations






























Interactive Weather Map New forecast layout! Learn more

10-Day Weather Forecast

Advertisements
Track Severe Weather on mobile